createdAt,value
2022-08-09T00:00:04.247Z,18.69
2022-08-09T00:02:31.506Z,18.75
2022-08-09T00:05:03.664Z,18.78
2022-08-09T00:07:45.288Z,18.80
2022-08-09T00:10:18.218Z,18.78
2022-08-09T00:12:51.576Z,18.87
2022-08-09T00:15:26.810Z,18.88
2022-08-09T00:18:11.401Z,18.76
2022-08-09T00:20:42.202Z,18.67
2022-08-09T00:23:54.805Z,18.70
2022-08-09T00:26:04.990Z,18.73
2022-08-09T00:28:31.929Z,18.76
2022-08-09T00:31:01.242Z,18.63
2022-08-09T00:33:51.194Z,18.67
2022-08-09T00:36:18.219Z,18.61
2022-08-09T00:38:45.245Z,18.63
2022-08-09T00:41:13.367Z,18.60
2022-08-09T00:44:25.338Z,18.30
2022-08-09T00:46:57.882Z,18.50
2022-08-09T00:49:28.742Z,18.56
2022-08-09T00:51:57.930Z,18.56
2022-08-09T00:54:31.569Z,18.43
2022-08-09T00:57:10.240Z,18.43
2022-08-09T00:59:46.081Z,18.42
2022-08-09T01:02:22.502Z,18.43
2022-08-09T01:05:14.319Z,18.37
2022-08-09T01:08:01.025Z,18.42
2022-08-09T01:10:46.093Z,18.27
2022-08-09T01:13:24.956Z,18.33
2022-08-09T01:15:59.272Z,18.31
2022-08-09T01:18:31.476Z,18.07
2022-08-09T01:21:16.820Z,17.91
2022-08-09T01:24:05.285Z,17.79
2022-08-09T01:27:04.098Z,17.88
2022-08-09T01:29:55.083Z,18.03
2022-08-09T01:32:31.645Z,18.09
2022-08-09T01:35:07.293Z,18.03
2022-08-09T01:38:09.630Z,17.99
2022-08-09T01:40:41.957Z,17.91
2022-08-09T01:43:09.085Z,18.01
2022-08-09T01:45:46.144Z,18.14
2022-08-09T01:48:16.384Z,18.04
2022-08-09T01:50:48.363Z,18.06
2022-08-09T01:53:19.356Z,17.96
2022-08-09T01:55:47.312Z,18.03
2022-08-09T01:58:15.179Z,18.05
2022-08-09T02:00:46.140Z,17.97
2022-08-09T02:03:17.394Z,18.04
2022-08-09T02:06:04.150Z,18.04
2022-08-09T02:08:39.062Z,17.98
2022-08-09T02:11:19.158Z,17.95
2022-08-09T02:14:06.512Z,17.93
2022-08-09T02:16:53.231Z,17.88
2022-08-09T02:19:22.468Z,17.83
2022-08-09T02:21:55.188Z,17.84
2022-08-09T02:24:26.495Z,17.70
2022-08-09T02:26:55.505Z,17.78
2022-08-09T02:29:27.837Z,17.69
2022-08-09T02:32:01.284Z,17.67
2022-08-09T02:34:40.661Z,17.73
2022-08-09T02:37:21.580Z,17.74
2022-08-09T02:40:01.732Z,17.69
2022-08-09T02:42:35.456Z,17.63
2022-08-09T02:45:06.705Z,17.55
2022-08-09T02:47:33.854Z,17.68
2022-08-09T02:50:37.113Z,17.69
2022-08-09T02:53:27.130Z,17.70
2022-08-09T02:55:58.488Z,17.70
2022-08-09T02:58:32.325Z,17.51
2022-08-09T03:01:03.979Z,17.65
2022-08-09T03:04:12.427Z,17.66
2022-08-09T03:06:21.495Z,17.52
2022-08-09T03:08:49.223Z,17.55
2022-08-09T03:11:30.056Z,17.72
2022-08-09T03:14:04.537Z,17.58
2022-08-09T03:16:31.558Z,17.50
2022-08-09T03:19:01.911Z,17.64
2022-08-09T03:21:28.535Z,17.65
2022-08-09T03:24:04.811Z,17.57
2022-08-09T03:26:33.722Z,17.57
2022-08-09T03:29:00.664Z,17.65
2022-08-09T03:31:27.431Z,17.48
2022-08-09T03:33:56.456Z,17.46
2022-08-09T03:36:27.805Z,17.36
2022-08-09T03:38:55.040Z,17.23
2022-08-09T03:41:42.983Z,17.10
2022-08-09T03:44:09.480Z,17.33
2022-08-09T03:46:39.000Z,17.31
2022-08-09T03:49:09.135Z,17.20
2022-08-09T03:51:56.250Z,17.12
2022-08-09T03:54:29.295Z,17.08
2022-08-09T03:56:58.166Z,17.05
2022-08-09T03:59:27.626Z,17.18
2022-08-09T04:02:10.001Z,17.31
2022-08-09T04:04:38.997Z,17.25
2022-08-09T04:07:05.678Z,17.15
2022-08-09T04:09:44.497Z,17.18
2022-08-09T04:12:30.800Z,17.11
2022-08-09T04:15:01.447Z,17.06
2022-08-09T04:17:38.237Z,17.18
2022-08-09T04:20:06.538Z,17.23
2022-08-09T04:22:34.019Z,17.27
2022-08-09T04:25:01.489Z,17.24
2022-08-09T04:27:29.615Z,17.22
2022-08-09T04:29:56.380Z,17.32
2022-08-09T04:32:29.185Z,17.39
2022-08-09T04:35:04.916Z,17.46
2022-08-09T04:37:42.254Z,17.48
2022-08-09T04:40:19.054Z,17.60
2022-08-09T04:42:45.941Z,17.54
2022-08-09T04:45:16.448Z,17.63
2022-08-09T04:47:59.181Z,17.65
2022-08-09T04:50:35.007Z,17.62
2022-08-09T04:53:13.503Z,17.56
2022-08-09T04:55:58.467Z,17.62
2022-08-09T04:58:31.609Z,17.71
2022-08-09T05:01:00.024Z,17.82
2022-08-09T05:03:39.963Z,17.61
2022-08-09T05:06:10.674Z,17.64
2022-08-09T05:08:38.114Z,17.76
2022-08-09T05:11:06.701Z,17.81
2022-08-09T05:13:34.134Z,18.00
2022-08-09T05:16:06.062Z,18.05
2022-08-09T05:18:38.909Z,17.78
2022-08-09T05:21:23.046Z,18.07
2022-08-09T05:24:00.522Z,18.08
2022-08-09T05:26:45.496Z,18.25
2022-08-09T05:29:21.924Z,18.28
2022-08-09T05:31:56.651Z,18.35
2022-08-09T05:34:31.485Z,18.07
2022-08-09T05:37:07.070Z,18.07
2022-08-09T05:39:43.858Z,18.22
2022-08-09T05:42:17.723Z,18.40
2022-08-09T05:44:52.452Z,18.47
2022-08-09T05:47:23.709Z,18.39
2022-08-09T05:50:35.145Z,18.37
2022-08-09T05:52:42.293Z,18.46
2022-08-09T05:55:10.962Z,18.66
2022-08-09T05:57:51.160Z,18.86
2022-08-09T06:00:24.706Z,19.12
2022-08-09T06:02:54.008Z,19.31
2022-08-09T06:05:50.110Z,19.44
2022-08-09T06:08:09.247Z,19.52
2022-08-09T06:10:40.726Z,19.63
2022-08-09T06:13:12.005Z,19.61
2022-08-09T06:15:39.865Z,19.54
2022-08-09T06:18:06.523Z,19.36
2022-08-09T06:20:37.824Z,19.49
2022-08-09T06:23:04.350Z,19.29
2022-08-09T06:25:31.215Z,19.59
2022-08-09T06:28:00.970Z,20.03
2022-08-09T06:30:27.865Z,20.12
2022-08-09T06:33:00.960Z,19.97
2022-08-09T06:35:55.800Z,20.32
2022-08-09T06:38:37.152Z,20.38
2022-08-09T06:41:12.418Z,20.58
2022-08-09T06:43:46.231Z,20.65
2022-08-09T06:46:38.931Z,20.55
2022-08-09T06:49:00.389Z,20.24
2022-08-09T06:51:27.172Z,20.24
2022-08-09T06:53:55.289Z,20.26
2022-08-09T06:56:21.976Z,20.77
2022-08-09T07:00:51.244Z,21.17
2022-08-09T07:01:58.132Z,21.45
2022-08-09T07:04:30.265Z,21.15
2022-08-09T07:07:00.499Z,21.12
2022-08-09T07:09:57.035Z,21.11
2022-08-09T07:12:18.053Z,20.98
2022-08-09T07:14:45.916Z,21.14
2022-08-09T07:17:18.568Z,21.99
2022-08-09T07:19:44.998Z,22.38
2022-08-09T07:22:14.794Z,22.62
2022-08-09T07:24:44.260Z,22.74
2022-08-09T07:27:27.172Z,22.75
2022-08-09T07:29:58.752Z,22.10
2022-08-09T07:32:31.814Z,22.11
2022-08-09T07:35:00.760Z,22.29
2022-08-09T07:37:29.352Z,22.93
2022-08-09T07:39:56.037Z,23.19
2022-08-09T07:42:32.584Z,23.47
2022-08-09T07:45:06.501Z,23.48
2022-08-09T07:48:00.481Z,23.42
2022-08-09T07:50:34.666Z,23.33
2022-08-09T07:53:03.007Z,23.31
2022-08-09T07:55:41.293Z,23.42
2022-08-09T07:58:17.996Z,23.34
2022-08-09T08:00:59.218Z,23.59
2022-08-09T08:03:31.108Z,23.36
2022-08-09T08:05:58.549Z,23.29
2022-08-09T08:09:02.218Z,23.35
2022-08-09T08:12:09.046Z,23.54
2022-08-09T08:13:58.950Z,23.79
2022-08-09T08:16:29.591Z,24.02
2022-08-09T08:18:58.593Z,23.83
2022-08-09T08:21:25.380Z,24.11
2022-08-09T08:23:56.201Z,24.56
2022-08-09T08:26:26.487Z,24.12
2022-08-09T08:29:08.914Z,24.19
2022-08-09T08:31:56.545Z,24.20
2022-08-09T08:34:25.613Z,23.87
2022-08-09T08:36:52.356Z,23.91
2022-08-09T08:39:18.859Z,23.83
2022-08-09T08:41:51.957Z,23.64
2022-08-09T08:44:27.142Z,24.15
2022-08-09T08:47:02.671Z,24.23
2022-08-09T08:49:46.371Z,24.30
2022-08-09T08:52:48.639Z,24.61
2022-08-09T08:55:03.979Z,24.46
2022-08-09T08:57:35.464Z,24.72
2022-08-09T09:00:12.659Z,24.53
2022-08-09T09:02:44.474Z,24.83
2022-08-09T09:05:32.949Z,25.07
2022-08-09T09:08:14.047Z,25.63
2022-08-09T09:10:57.850Z,25.32
2022-08-09T09:13:24.311Z,25.48
2022-08-09T09:16:09.118Z,25.62
2022-08-09T09:18:36.382Z,25.65
2022-08-09T09:21:06.844Z,26.24
2022-08-09T09:23:49.920Z,26.37
2022-08-09T09:26:26.099Z,26.41
2022-08-09T09:29:04.151Z,26.46
2022-08-09T09:32:06.669Z,26.41
2022-08-09T09:34:24.755Z,26.05
2022-08-09T09:36:56.507Z,25.62
2022-08-09T09:39:42.575Z,25.72
2022-08-09T09:42:24.236Z,26.04
2022-08-09T09:44:59.578Z,25.87
2022-08-09T09:47:28.358Z,26.10
2022-08-09T09:50:15.231Z,25.99
2022-08-09T09:52:53.617Z,25.91
2022-08-09T09:55:27.770Z,25.40
2022-08-09T09:58:16.284Z,25.88
2022-08-09T10:00:55.306Z,25.95
2022-08-09T10:03:57.610Z,25.68
2022-08-09T10:06:27.800Z,25.52
2022-08-09T10:09:02.702Z,25.46
2022-08-09T10:11:58.987Z,25.85
2022-08-09T10:14:30.327Z,25.83
2022-08-09T10:17:11.330Z,26.09
2022-08-09T10:19:45.842Z,25.86
2022-08-09T10:22:12.752Z,26.34
2022-08-09T10:24:40.354Z,26.62
2022-08-09T10:27:10.201Z,26.16
2022-08-09T10:30:43.753Z,26.72
2022-08-09T10:32:40.217Z,26.92
2022-08-09T10:35:09.928Z,26.55
2022-08-09T10:37:38.389Z,26.42
2022-08-09T10:40:06.717Z,26.53
2022-08-09T10:42:38.752Z,26.74
2022-08-09T10:45:11.778Z,26.84
2022-08-09T10:48:20.308Z,26.88
2022-08-09T10:51:07.034Z,26.74
2022-08-09T10:53:54.811Z,26.94
2022-08-09T10:56:26.572Z,26.92
2022-08-09T10:58:57.862Z,27.18
2022-08-09T11:03:11.281Z,27.32
2022-08-09T11:04:30.922Z,27.52
2022-08-09T11:07:00.181Z,27.11
2022-08-09T11:09:41.242Z,26.81
2022-08-09T11:12:26.526Z,26.94
2022-08-09T11:14:58.049Z,27.17
2022-08-09T11:17:24.512Z,27.60
2022-08-09T11:20:22.686Z,27.30
2022-08-09T11:22:56.752Z,27.14
2022-08-09T11:25:36.300Z,26.81
2022-08-09T11:28:53.310Z,26.89
2022-08-09T11:31:43.290Z,27.36
2022-08-09T11:34:41.639Z,27.12
2022-08-09T11:37:18.319Z,27.02
2022-08-09T11:40:04.052Z,27.43
2022-08-09T11:42:48.864Z,27.51
2022-08-09T11:45:43.619Z,27.55
2022-08-09T11:48:26.306Z,26.92
2022-08-09T11:52:49.293Z,26.96
2022-08-09T11:53:59.857Z,27.84
2022-08-09T11:56:42.808Z,28.59
2022-08-09T11:59:30.402Z,29.06
2022-08-09T12:02:01.113Z,28.68
2022-08-09T12:04:45.126Z,28.00
2022-08-09T12:07:11.712Z,28.57
2022-08-09T12:09:50.982Z,27.59
2022-08-09T12:12:28.529Z,27.95
2022-08-09T12:15:50.218Z,28.56
2022-08-09T12:18:30.353Z,29.07
2022-08-09T12:21:02.709Z,29.51
2022-08-09T12:23:56.394Z,29.41
2022-08-09T12:26:19.480Z,29.15
2022-08-09T12:29:11.737Z,27.92
2022-08-09T12:32:02.198Z,27.57
2022-08-09T12:34:39.785Z,27.56
2022-08-09T12:37:21.755Z,27.77
2022-08-09T12:40:01.274Z,28.22
2022-08-09T12:42:28.502Z,28.65
2022-08-09T12:44:56.750Z,28.81
2022-08-09T12:47:26.365Z,28.88
2022-08-09T12:50:11.305Z,28.72
2022-08-09T12:52:58.454Z,28.94
2022-08-09T12:56:14.458Z,28.63
2022-08-09T12:58:27.199Z,27.89
2022-08-09T13:00:55.043Z,28.04
2022-08-09T13:03:53.565Z,28.18
2022-08-09T13:06:39.232Z,28.63
2022-08-09T13:09:26.155Z,28.44
2022-08-09T13:12:03.039Z,28.74
2022-08-09T13:14:41.500Z,29.28
2022-08-09T13:17:16.243Z,28.85
2022-08-09T13:20:08.900Z,28.57
2022-08-09T13:23:01.822Z,29.26
2022-08-09T13:25:54.369Z,29.16
2022-08-09T13:28:24.638Z,28.99
2022-08-09T13:32:15.427Z,29.43
2022-08-09T13:33:56.768Z,29.37
2022-08-09T13:36:41.363Z,28.16
2022-08-09T13:41:54.897Z,28.03
2022-08-09T13:42:12.472Z,28.14
2022-08-09T13:44:40.193Z,28.70
2022-08-09T13:47:27.765Z,28.42
2022-08-09T13:50:01.003Z,27.63
2022-08-09T13:52:29.252Z,27.44
2022-08-09T13:55:00.698Z,27.93
2022-08-09T13:57:36.441Z,27.80
2022-08-09T14:00:09.765Z,27.48
2022-08-09T14:02:42.831Z,28.30
2022-08-09T14:05:58.732Z,28.11
2022-08-09T14:08:10.283Z,28.14
2022-08-09T14:10:46.354Z,28.58
2022-08-09T14:13:27.948Z,28.93
2022-08-09T14:16:09.711Z,28.79
2022-08-09T14:18:38.161Z,28.80
2022-08-09T14:21:06.012Z,28.34
2022-08-09T14:23:40.745Z,28.40
2022-08-09T14:26:20.370Z,27.80
2022-08-09T14:28:47.095Z,28.00
2022-08-09T14:31:13.737Z,28.29
2022-08-09T14:33:40.166Z,28.36
2022-08-09T14:36:19.648Z,28.29
2022-08-09T14:38:47.486Z,28.94
2022-08-09T14:41:24.009Z,29.58
2022-08-09T14:44:01.375Z,29.72
2022-08-09T14:47:01.154Z,29.18
2022-08-09T14:49:16.561Z,28.52
2022-08-09T14:51:43.023Z,28.72
2022-08-09T14:54:09.576Z,29.05
2022-08-09T14:56:36.416Z,29.50
2022-08-09T14:59:23.442Z,29.15
2022-08-09T15:01:50.292Z,28.90
2022-08-09T15:04:16.734Z,29.15
2022-08-09T15:06:43.168Z,29.51
2022-08-09T15:09:16.755Z,29.43
2022-08-09T15:12:04.418Z,28.87
2022-08-09T15:14:33.825Z,28.13
2022-08-09T15:17:00.690Z,28.07
2022-08-09T15:19:36.247Z,28.49
2022-08-09T15:22:03.386Z,28.35
2022-08-09T15:24:29.881Z,28.78
2022-08-09T15:26:56.366Z,29.55
2022-08-09T15:31:01.195Z,29.86
2022-08-09T15:32:29.544Z,29.49
2022-08-09T15:34:59.836Z,28.89
2022-08-09T15:37:56.341Z,28.79
2022-08-09T15:40:32.329Z,28.73
2022-08-09T15:43:00.102Z,29.25
2022-08-09T15:45:29.420Z,28.99
2022-08-09T15:48:05.349Z,28.96
2022-08-09T15:50:34.374Z,28.44
2022-08-09T15:53:17.713Z,28.34
2022-08-09T15:56:04.574Z,28.69
2022-08-09T15:58:32.895Z,29.14
2022-08-09T16:00:59.547Z,28.94
2022-08-09T16:03:38.144Z,28.62
2022-08-09T16:06:29.528Z,28.37
2022-08-09T16:08:56.038Z,28.48
2022-08-09T16:11:22.664Z,28.56
2022-08-09T16:14:03.552Z,28.51
2022-08-09T16:16:34.632Z,28.95
2022-08-09T16:19:04.928Z,29.01
2022-08-09T16:21:34.994Z,28.88
2022-08-09T16:24:03.017Z,29.02
2022-08-09T16:26:34.578Z,28.72
2022-08-09T16:29:12.873Z,28.53
2022-08-09T16:32:17.936Z,28.58
2022-08-09T16:34:54.555Z,28.84
2022-08-09T16:37:17.853Z,28.77
2022-08-09T16:39:54.725Z,28.42
2022-08-09T16:42:30.923Z,28.26
2022-08-09T16:44:57.379Z,27.95
2022-08-09T16:48:50.610Z,28.01
2022-08-09T16:50:31.321Z,28.23
2022-08-09T16:52:58.803Z,28.27
2022-08-09T16:55:25.327Z,28.46
2022-08-09T16:58:10.175Z,28.27
2022-08-09T17:00:41.925Z,28.27
2022-08-09T17:03:20.896Z,28.29
2022-08-09T17:06:09.408Z,27.91
2022-08-09T17:08:44.098Z,27.97
2022-08-09T17:11:15.311Z,27.90
2022-08-09T17:13:42.021Z,27.94
2022-08-09T17:16:11.920Z,27.70
2022-08-09T17:18:38.861Z,27.99
2022-08-09T17:21:05.427Z,27.40
2022-08-09T17:24:20.708Z,27.49
2022-08-09T17:26:31.712Z,27.41
2022-08-09T17:29:04.948Z,27.44
2022-08-09T17:31:38.811Z,27.38
2022-08-09T17:34:06.844Z,27.23
2022-08-09T17:36:53.950Z,26.92
2022-08-09T17:39:25.073Z,26.91
2022-08-09T17:41:51.810Z,26.82
2022-08-09T17:44:47.185Z,26.74
2022-08-09T17:47:05.931Z,26.80
2022-08-09T17:49:37.042Z,26.64
2022-08-09T17:52:22.338Z,26.45
2022-08-09T17:54:49.658Z,26.47
2022-08-09T17:57:20.619Z,26.09
2022-08-09T18:00:05.730Z,26.08
2022-08-09T18:02:34.134Z,26.37
2022-08-09T18:05:00.710Z,26.23
2022-08-09T18:07:27.118Z,26.01
2022-08-09T18:10:05.087Z,26.08
2022-08-09T18:12:40.468Z,26.09
2022-08-09T18:15:18.629Z,25.87
2022-08-09T18:18:01.749Z,25.71
2022-08-09T18:20:56.085Z,25.52
2022-08-09T18:24:11.282Z,25.79
2022-08-09T18:26:03.731Z,25.43
2022-08-09T18:30:37.644Z,25.53
2022-08-09T18:31:24.924Z,25.42
2022-08-09T18:33:59.047Z,25.55
2022-08-09T18:36:32.506Z,25.30
2022-08-09T18:39:02.459Z,25.02
2022-08-09T18:41:29.504Z,25.14
2022-08-09T18:44:03.170Z,25.05
2022-08-09T18:46:50.533Z,25.18
2022-08-09T18:49:17.221Z,24.72
2022-08-09T18:51:54.654Z,24.58
2022-08-09T18:54:28.491Z,24.56
2022-08-09T18:56:56.702Z,24.39
2022-08-09T18:59:37.573Z,24.26
2022-08-09T19:02:15.729Z,24.20
2022-08-09T19:04:43.339Z,24.07
2022-08-09T19:07:16.301Z,23.95
2022-08-09T19:10:17.370Z,23.91
2022-08-09T19:12:30.678Z,23.92
2022-08-09T19:14:57.339Z,23.79
2022-08-09T19:17:24.035Z,23.73
2022-08-09T19:19:58.814Z,23.70
2022-08-09T19:22:27.686Z,23.44
2022-08-09T19:25:07.533Z,23.56
2022-08-09T19:27:39.381Z,23.48
2022-08-09T19:30:23.239Z,23.28
2022-08-09T19:32:53.694Z,23.16
2022-08-09T19:35:26.326Z,23.16
2022-08-09T19:37:55.886Z,23.19
2022-08-09T19:40:24.196Z,23.06
2022-08-09T19:43:01.709Z,23.00
2022-08-09T19:45:39.060Z,22.97
2022-08-09T19:48:10.844Z,22.91
2022-08-09T19:50:50.877Z,22.69
2022-08-09T19:53:18.108Z,22.71
2022-08-09T19:56:03.366Z,22.76
2022-08-09T19:58:33.631Z,22.67
2022-08-09T20:01:00.088Z,22.63
2022-08-09T20:04:10.799Z,22.55
2022-08-09T20:06:23.665Z,22.49
2022-08-09T20:08:57.629Z,22.40
2022-08-09T20:11:27.160Z,22.38
2022-08-09T20:14:09.610Z,22.16
2022-08-09T20:16:50.231Z,22.09
2022-08-09T20:19:48.018Z,22.18
2022-08-09T20:22:10.089Z,22.07
2022-08-09T20:24:40.912Z,22.03
2022-08-09T20:27:08.251Z,22.06
2022-08-09T20:29:38.727Z,21.90
2022-08-09T20:32:29.736Z,21.95
2022-08-09T20:34:56.520Z,21.81
2022-08-09T20:37:23.064Z,21.68
2022-08-09T20:40:16.227Z,21.64
2022-08-09T20:42:38.026Z,21.73
2022-08-09T20:46:00.839Z,21.71
2022-08-09T20:47:52.027Z,21.48
2022-08-09T20:50:47.789Z,21.52
2022-08-09T20:53:05.305Z,21.56
2022-08-09T20:56:02.539Z,21.43
2022-08-09T20:58:32.306Z,21.23
2022-08-09T21:01:14.239Z,21.19
2022-08-09T21:05:48.509Z,21.20
2022-08-09T21:06:34.284Z,21.13
2022-08-09T21:09:02.258Z,21.26
2022-08-09T21:14:21.911Z,21.08
2022-08-09T21:16:49.263Z,20.98
2022-08-09T21:20:04.362Z,20.83
2022-08-09T21:22:05.628Z,20.83
2022-08-09T21:25:10.730Z,20.90
2022-08-09T21:28:00.392Z,20.88
2022-08-09T21:30:23.970Z,20.79
2022-08-09T21:32:53.006Z,20.84
2022-08-09T21:35:21.584Z,20.67
2022-08-09T21:37:58.838Z,20.76
2022-08-09T21:40:30.236Z,20.54
2022-08-09T21:42:58.503Z,20.51
2022-08-09T21:45:25.597Z,20.50
2022-08-09T21:47:52.286Z,20.66
2022-08-09T21:50:23.033Z,20.62
2022-08-09T21:53:02.867Z,20.62
2022-08-09T21:55:30.391Z,20.49
2022-08-09T21:58:01.936Z,20.55
2022-08-09T22:00:34.284Z,20.67
2022-08-09T22:03:05.911Z,20.31
2022-08-09T22:05:37.065Z,20.29
2022-08-09T22:08:06.135Z,20.39
2022-08-09T22:10:33.248Z,20.33
2022-08-09T22:13:00.858Z,20.19
2022-08-09T22:15:35.050Z,20.25
2022-08-09T22:18:01.901Z,20.34
2022-08-09T22:20:31.334Z,20.22
2022-08-09T22:22:58.074Z,20.32
2022-08-09T22:26:06.707Z,20.43
2022-08-09T22:28:11.067Z,20.41
2022-08-09T22:30:38.899Z,20.50
2022-08-09T22:33:14.947Z,20.37
2022-08-09T22:36:02.718Z,20.32
2022-08-09T22:38:30.269Z,20.53
2022-08-09T22:40:58.453Z,20.53
2022-08-09T22:44:03.073Z,20.46
2022-08-09T22:48:16.876Z,20.53
2022-08-09T22:49:09.719Z,20.23
2022-08-09T22:51:38.323Z,20.31
2022-08-09T22:54:08.280Z,20.36
2022-08-09T22:56:38.052Z,20.44
2022-08-09T22:59:55.259Z,20.39
2022-08-09T23:01:54.676Z,20.40
2022-08-09T23:04:21.169Z,20.43
2022-08-09T23:07:11.125Z,20.30
2022-08-09T23:09:38.575Z,20.13
2022-08-09T23:12:05.238Z,20.02
2022-08-09T23:14:41.391Z,20.24
2022-08-09T23:17:10.040Z,20.30
2022-08-09T23:20:07.267Z,20.46
2022-08-09T23:22:23.125Z,20.34
2022-08-09T23:24:49.785Z,20.42
2022-08-09T23:27:16.214Z,20.28
2022-08-09T23:29:42.640Z,20.21
2022-08-09T23:32:09.327Z,20.35
2022-08-09T23:34:36.689Z,20.23
2022-08-09T23:37:04.500Z,20.31
2022-08-09T23:39:31.080Z,20.25
2022-08-09T23:41:57.636Z,20.23
2022-08-09T23:44:24.050Z,20.30
2022-08-09T23:46:57.328Z,20.33
2022-08-09T23:49:25.153Z,20.49
2022-08-09T23:51:52.197Z,20.43
2022-08-09T23:54:19.860Z,20.34
2022-08-09T23:56:53.944Z,20.29
2022-08-09T23:59:22.879Z,20.11
